Time;durP1;ratioP1;P1;durP2;ratioP2;P2;SDS_P1;SDS_P2;PMS_P1;PMS_P2;Temp;Humidity;BMP_temperature;BMP_pressure;BME280_temperature;BME280_humidity;BME280_pressure;Samples;Min_cycle;Max_cycle;Signal;HPM_P1;HPM_P2
2021/12/25 00:01:21;;;;;;;6.40;1.93;;;29.30;58.00;;;;;;5074377;28;20186;-74
2021/12/25 00:03:55;;;;;;;7.37;2.30;;;29.20;57.70;;;;;;5073579;28;20186;-73
2021/12/25 00:06:24;;;;;;;6.07;2.03;;;29.30;58.00;;;;;;5071051;28;20183;-74
2021/12/25 00:08:52;;;;;;;7.93;2.37;;;29.30;58.90;;;;;;5073843;28;20659;-74
2021/12/25 00:11:19;;;;;;;6.57;2.00;;;29.30;59.40;;;;;;5073872;28;20557;-74
2021/12/25 00:13:47;;;;;;;4.37;1.43;;;29.30;58.50;;;;;;5077621;28;20186;-77
2021/12/25 00:16:14;;;;;;;5.13;2.03;;;29.10;59.30;;;;;;5074982;28;20703;-77
2021/12/25 00:18:42;;;;;;;7.37;2.07;;;29.00;60.30;;;;;;5075567;28;20303;-75
2021/12/25 00:21:10;;;;;;;5.73;1.77;;;29.20;59.30;;;;;;5065910;28;20180;-81
2021/12/25 00:23:39;;;;;;;4.47;1.40;;;29.20;58.20;;;;;;5073637;28;20313;-76
2021/12/25 00:26:26;;;;;;;3.30;1.70;;;29.10;58.70;;;;;;5071149;28;20206;-74
2021/12/25 00:29:06;;;;;;;6.13;1.73;;;29.30;57.80;;;;;;5072085;28;20183;-75
2021/12/25 00:31:52;;;;;;;3.73;1.53;;;29.30;57.10;;;;;;5067661;28;20187;-74
2021/12/25 00:34:23;;;;;;;4.17;1.60;;;29.30;56.80;;;;;;5077736;28;20183;-76
2021/12/25 00:36:51;;;;;;;4.90;1.73;;;29.50;56.80;;;;;;5073134;28;20226;-77
2021/12/25 00:39:19;;;;;;;6.17;1.50;;;29.80;56.00;;;;;;5070529;28;20234;-79
2021/12/25 00:41:46;;;;;;;4.20;1.57;;;29.70;56.10;;;;;;5077178;28;20187;-74
2021/12/25 00:44:14;;;;;;;6.47;1.50;;;29.60;55.70;;;;;;5073485;28;20309;-76
2021/12/25 00:46:41;;;;;;;4.40;1.60;;;29.80;54.70;;;;;;5071795;28;20179;-75
2021/12/25 00:49:08;;;;;;;3.20;1.30;;;29.80;55.00;;;;;;5072659;28;20184;-76
2021/12/25 00:51:36;;;;;;;4.53;1.40;;;29.80;55.10;;;;;;5071746;28;20214;-74
2021/12/25 00:54:03;;;;;;;5.93;1.87;;;29.60;54.90;;;;;;5071507;28;20195;-77
2021/12/25 00:56:31;;;;;;;5.80;1.67;;;29.80;55.10;;;;;;5072206;28;20271;-77
2021/12/25 00:58:58;;;;;;;3.57;1.40;;;29.80;54.90;;;;;;5072734;28;20252;-81
2021/12/25 01:01:25;;;;;;;4.20;1.40;;;30.10;54.60;;;;;;5071389;28;20544;-80
2021/12/25 01:03:53;;;;;;;2.60;1.30;;;30.20;54.50;;;;;;5073235;28;20179;-76
2021/12/25 01:06:20;;;;;;;3.80;1.50;;;30.00;55.10;;;;;;5071672;28;20179;-76
2021/12/25 01:08:48;;;;;;;8.33;2.73;;;30.00;55.40;;;;;;5072530;28;20186;-77
2021/12/25 01:11:16;;;;;;;4.60;2.13;;;30.10;55.50;;;;;;5072326;28;20278;-74
2021/12/25 01:13:56;;;;;;;6.23;1.80;;;30.30;54.70;;;;;;5073218;28;20252;-77
2021/12/25 01:48:56;;;;;;;7.77;1.43;;;30.30;54.40;;;;;;5076195;28;20189;-75
2021/12/25 01:51:23;;;;;;;6.20;1.50;;;30.40;54.00;;;;;;5072511;28;20684;-76
2021/12/25 01:53:51;;;;;;;8.97;1.80;;;30.30;54.30;;;;;;5071972;28;20293;-79
2021/12/25 01:56:18;;;;;;;3.22;1.30;;;30.30;54.50;;;;;;5071381;28;20179;-82
2021/12/25 01:58:45;;;;;;;4.13;1.37;;;30.30;53.80;;;;;;5074293;28;20213;-78
2021/12/25 02:01:13;;;;;;;7.17;2.00;;;30.20;54.70;;;;;;5075058;28;20216;-77
2021/12/25 02:03:41;;;;;;;7.03;1.60;;;30.10;54.50;;;;;;5072466;28;20206;-79
2021/12/25 02:06:11;;;;;;;3.90;1.38;;;30.30;54.10;;;;;;5075876;28;20190;-75
2021/12/25 02:08:44;;;;;;;6.17;1.60;;;30.40;54.50;;;;;;5076163;28;20206;-76
2021/12/25 02:11:12;;;;;;;4.60;1.40;;;30.50;54.20;;;;;;5064585;28;20618;-75
2021/12/25 02:13:41;;;;;;;4.60;1.50;;;30.50;54.30;;;;;;5072182;28;20179;-77
2021/12/25 02:16:16;;;;;;;3.77;1.20;;;30.30;54.70;;;;;;5064289;28;20175;-78
2021/12/25 02:21:19;;;;;;;4.67;1.60;;;30.10;55.50;;;;;;5067493;28;20179;-74
2021/12/25 02:23:48;;;;;;;5.70;1.40;;;30.60;55.40;;;;;;5075812;28;20186;-76
2021/12/25 02:26:18;;;;;;;5.40;1.40;;;30.70;54.20;;;;;;5069663;28;20185;-76
2021/12/25 02:28:46;;;;;;;6.93;1.50;;;30.60;54.40;;;;;;5075939;28;20228;-78
2021/12/25 02:31:24;;;;;;;4.88;1.42;;;30.40;55.30;;;;;;5068593;28;20226;-76
2021/12/25 02:33:51;;;;;;;4.97;1.67;;;30.70;54.50;;;;;;5075203;28;20186;-76
2021/12/25 02:36:19;;;;;;;6.97;1.40;;;31.00;54.10;;;;;;5076089;28;20225;-79
2021/12/25 02:38:48;;;;;;;6.83;1.33;;;30.40;54.30;;;;;;5080823;28;20202;-80
2021/12/25 02:41:17;;;;;;;5.43;1.33;;;30.50;54.70;;;;;;5075638;28;20682;-80
2021/12/25 02:43:46;;;;;;;4.00;2.30;;;30.40;54.60;;;;;;5076181;28;20214;-81
2021/12/25 02:46:14;;;;;;;4.90;2.17;;;30.30;55.30;;;;;;5075560;28;20179;-83
2021/12/25 02:48:42;;;;;;;5.63;1.53;;;30.50;54.40;;;;;;5077191;28;20267;-80
2021/12/25 02:51:12;;;;;;;4.37;1.33;;;30.30;54.60;;;;;;5076127;28;20176;-79
2021/12/25 02:53:40;;;;;;;4.50;1.55;;;30.20;55.00;;;;;;5075825;28;20175;-78
2021/12/25 02:56:08;;;;;;;9.60;3.77;;;30.60;54.20;;;;;;5098312;27;20271;-76
2021/12/25 02:58:36;;;;;;;7.43;4.20;;;30.60;54.30;;;;;;5071794;28;20196;-86
2021/12/25 03:01:13;;;;;;;10.00;5.10;;;30.60;53.90;;;;;;5074509;28;20179;-80
2021/12/25 03:03:42;;;;;;;6.20;3.10;;;30.20;54.60;;;;;;5082889;28;20170;-82
2021/12/25 03:06:10;;;;;;;6.38;1.80;;;30.20;54.60;;;;;;5072225;28;20203;-75
2021/12/25 03:08:39;;;;;;;5.87;1.70;;;30.30;54.60;;;;;;5072325;28;20262;-75
2021/12/25 03:11:07;;;;;;;3.70;1.30;;;30.60;53.90;;;;;;5074870;28;20179;-77
2021/12/25 03:13:43;;;;;;;5.70;1.67;;;30.70;53.70;;;;;;5074421;28;20207;-76
2021/12/25 03:16:12;;;;;;;5.80;1.27;;;30.70;53.00;;;;;;5075010;28;20543;-74
2021/12/25 03:18:49;;;;;;;9.38;1.40;;;30.70;53.30;;;;;;5079353;28;20318;-78
2021/12/25 03:21:18;;;;;;;6.63;1.45;;;30.40;52.30;;;;;;5077634;28;20171;-74
2021/12/25 03:23:47;;;;;;;3.80;1.20;;;30.80;52.70;;;;;;5075345;28;20179;-75
2021/12/25 03:26:15;;;;;;;3.95;1.23;;;31.10;52.50;;;;;;5074903;28;20394;-75
2021/12/25 03:28:44;;;;;;;4.05;1.17;;;31.00;52.20;;;;;;5073808;28;20183;-76
2021/12/25 03:31:20;;;;;;;3.60;1.02;;;31.10;52.10;;;;;;5076252;28;20175;-75
2021/12/25 03:33:53;;;;;;;5.45;1.45;;;31.30;52.10;;;;;;5075081;28;20185;-73
2021/12/25 03:36:22;;;;;;;5.28;1.38;;;31.00;52.20;;;;;;5075441;28;20215;-71
2021/12/25 03:38:50;;;;;;;3.80;1.33;;;30.80;52.50;;;;;;5084116;28;20741;-74
2021/12/25 03:41:21;;;;;;;5.82;1.30;;;31.10;52.20;;;;;;5080115;28;20184;-83
2021/12/25 03:43:49;;;;;;;3.35;1.20;;;30.80;53.00;;;;;;5072502;28;20187;-75
2021/12/25 03:46:18;;;;;;;8.13;1.42;;;30.90;53.10;;;;;;5081292;28;20701;-77
2021/12/25 03:59:42;;;;;;;3.65;1.10;;;31.60;51.90;;;;;;5074713;28;20699;-78
2021/12/25 04:02:18;;;;;;;4.10;1.10;;;31.40;52.60;;;;;;5073798;28;20237;-83
2021/12/25 04:04:50;;;;;;;5.43;1.40;;;30.90;53.60;;;;;;5073429;28;20202;-80
2021/12/25 04:10:06;;;;;;;6.70;1.70;;;31.20;53.60;;;;;;5074453;28;20183;-81
2021/12/25 04:12:34;;;;;;;6.60;1.65;;;31.10;54.50;;;;;;5075050;28;20172;-76
2021/12/25 04:15:01;;;;;;;6.45;1.30;;;31.60;53.30;;;;;;5074404;28;20203;-77
2021/12/25 04:17:28;;;;;;;4.80;1.27;;;31.60;52.30;;;;;;5075941;28;20168;-81
2021/12/25 04:19:57;;;;;;;5.05;1.42;;;32.00;52.10;;;;;;5075823;28;20183;-79
2021/12/25 04:22:31;;;;;;;4.03;1.30;;;31.80;51.80;;;;;;5074680;28;20527;-77
2021/12/25 04:24:58;;;;;;;4.88;1.30;;;31.40;52.70;;;;;;5074777;28;20202;-72
2021/12/25 04:27:26;;;;;;;7.82;2.10;;;31.70;52.50;;;;;;5070142;28;20183;-78
2021/12/25 04:29:58;;;;;;;3.42;1.33;;;32.00;52.40;;;;;;5074373;28;20183;-78
2021/12/25 05:05:44;;;;;;;7.32;1.63;;;32.10;52.70;;;;;;5073600;28;20175;-80
2021/12/25 05:08:12;;;;;;;7.18;1.75;;;31.90;52.90;;;;;;5069177;28;20183;-80
2021/12/25 05:10:39;;;;;;;6.70;1.58;;;32.00;52.60;;;;;;5072928;28;20171;-79
2021/12/25 05:13:09;;;;;;;4.10;1.58;;;31.80;52.70;;;;;;5072020;28;20578;-85
2021/12/25 05:15:42;;;;;;;3.45;1.38;;;32.00;52.70;;;;;;5078209;28;20171;-83
2021/12/25 05:18:12;;;;;;;6.22;1.30;;;31.90;52.60;;;;;;5077148;28;20268;-81
2021/12/25 05:20:41;;;;;;;5.35;1.40;;;31.60;53.90;;;;;;5072394;28;20176;-78
2021/12/25 05:23:11;;;;;;;4.88;1.40;;;31.50;54.00;;;;;;5072830;28;20744;-78
2021/12/25 05:25:40;;;;;;;7.35;1.67;;;31.10;54.90;;;;;;5072757;28;20179;-83
2021/12/25 05:28:08;;;;;;;5.53;1.50;;;31.30;54.60;;;;;;5062639;28;20669;-78
2021/12/25 05:30:44;;;;;;;5.00;1.10;;;31.60;53.70;;;;;;5069320;28;20187;-80
2021/12/25 05:33:12;;;;;;;8.48;1.40;;;31.40;53.80;;;;;;5074003;28;20182;-79
2021/12/25 05:35:39;;;;;;;8.00;1.75;;;31.10;54.60;;;;;;5072769;28;20669;-81
2021/12/25 05:38:13;;;;;;;7.45;1.42;;;30.80;55.50;;;;;;5072035;28;20210;-83
2021/12/25 05:40:44;;;;;;;6.32;1.73;;;31.00;55.90;;;;;;5071736;28;20183;-80
2021/12/25 05:43:16;;;;;;;6.78;1.45;;;31.00;55.60;;;;;;5063496;28;20194;-76
2021/12/25 05:45:43;;;;;;;4.00;1.20;;;31.20;53.40;;;;;;5069460;28;20394;-79
2021/12/25 05:48:20;;;;;;;4.45;1.35;;;31.10;53.50;;;;;;5073200;28;20175;-81
2021/12/25 05:50:48;;;;;;;5.68;1.35;;;30.80;54.80;;;;;;5071482;28;20218;-79
2021/12/25 05:53:18;;;;;;;6.05;1.92;;;30.90;54.90;;;;;;5072519;28;20183;-79
2021/12/25 05:55:46;;;;;;;6.72;1.63;;;30.70;54.90;;;;;;5065509;28;20192;-77
2021/12/25 05:58:17;;;;;;;8.27;1.40;;;30.30;55.20;;;;;;5066699;28;20237;-85
2021/12/25 06:00:45;;;;;;;7.25;1.65;;;29.80;57.10;;;;;;5072073;28;20175;-81
2021/12/25 06:03:12;;;;;;;6.00;1.53;;;29.40;58.20;;;;;;5070871;28;20180;-83
2021/12/25 06:05:41;;;;;;;5.07;1.20;;;29.20;59.30;;;;;;5072494;28;20189;-77
2021/12/25 06:08:08;;;;;;;7.30;1.70;;;28.90;60.20;;;;;;5064678;28;20183;-80
2021/12/25 06:10:36;;;;;;;7.23;1.53;;;28.80;60.60;;;;;;5072610;28;20187;-81
2021/12/25 06:13:03;;;;;;;5.43;1.60;;;28.50;60.90;;;;;;5072080;28;20207;-81
2021/12/25 06:15:31;;;;;;;5.80;1.47;;;28.30;61.80;;;;;;5071940;28;20617;-84
2021/12/25 06:18:01;;;;;;;5.73;1.30;;;28.10;62.20;;;;;;5072950;28;20211;-80
2021/12/25 06:20:29;;;;;;;3.73;1.37;;;28.30;61.90;;;;;;5072658;28;20207;-80
2021/12/25 06:22:56;;;;;;;8.93;1.77;;;28.00;62.80;;;;;;5079678;28;20262;-78
2021/12/25 06:25:27;;;;;;;6.03;1.23;;;28.00;63.10;;;;;;5072033;28;20183;-83
2021/12/25 06:27:55;;;;;;;7.03;1.20;;;28.00;63.60;;;;;;5066660;28;20183;-79
2021/12/25 06:30:22;;;;;;;7.80;1.40;;;27.90;63.70;;;;;;5071175;28;20184;-85
2021/12/25 06:32:50;;;;;;;10.30;1.80;;;27.80;63.80;;;;;;5071164;28;20183;-80
2021/12/25 06:35:17;;;;;;;3.97;1.03;;;27.80;63.80;;;;;;5070946;28;20187;-85
2021/12/25 06:37:46;;;;;;;5.17;1.53;;;27.50;64.50;;;;;;5071148;28;20222;-83
2021/12/25 06:40:19;;;;;;;8.73;1.87;;;27.40;64.60;;;;;;5071182;28;20627;-77
2021/12/25 06:42:47;;;;;;;7.67;1.83;;;27.20;65.20;;;;;;5071055;28;20547;-80
2021/12/25 06:45:15;;;;;;;7.97;1.80;;;27.10;66.20;;;;;;5066541;28;20279;-84
2021/12/25 06:47:42;;;;;;;9.07;1.50;;;27.20;66.10;;;;;;5062687;28;20675;-78
2021/12/25 06:50:11;;;;;;;4.43;1.50;;;27.10;66.00;;;;;;5072299;28;20876;-78
2021/12/25 06:52:40;;;;;;;7.57;1.63;;;27.10;66.30;;;;;;5064507;28;20536;-81
2021/12/25 06:55:08;;;;;;;8.50;1.90;;;26.90;66.60;;;;;;5063611;28;20293;-81
2021/12/25 06:57:43;;;;;;;7.70;1.43;;;27.00;66.80;;;;;;5068838;28;20179;-79
2021/12/25 07:00:12;;;;;;;8.83;1.97;;;26.90;66.80;;;;;;5058363;28;20653;-78
2021/12/25 07:02:39;;;;;;;9.60;1.53;;;26.80;67.40;;;;;;5068605;28;20555;-78
2021/12/25 07:05:07;;;;;;;7.00;1.70;;;26.80;68.10;;;;;;5071542;28;20183;-78
2021/12/25 07:07:34;;;;;;;11.17;1.90;;;26.70;68.60;;;;;;5072611;28;20215;-79
2021/12/25 07:10:02;;;;;;;12.10;2.10;;;26.70;68.80;;;;;;5074285;28;20228;-80
2021/12/25 07:12:35;;;;;;;7.90;2.07;;;26.50;69.90;;;;;;5075512;28;20254;-79
2021/12/25 07:15:04;;;;;;;9.03;1.97;;;26.50;70.10;;;;;;5070506;28;20233;-78
2021/12/25 07:17:31;;;;;;;8.83;1.80;;;26.40;70.80;;;;;;5075512;28;20182;-77
2021/12/25 07:19:59;;;;;;;8.50;1.90;;;26.30;70.70;;;;;;5075064;28;20223;-78
2021/12/25 07:22:27;;;;;;;9.03;1.87;;;26.40;70.70;;;;;;5072297;28;20254;-87
2021/12/25 07:24:54;;;;;;;9.37;2.13;;;26.30;70.60;;;;;;5073919;28;20637;-74
2021/12/25 07:27:22;;;;;;;12.17;2.20;;;26.40;70.60;;;;;;5075325;28;20207;-77
2021/12/25 07:29:49;;;;;;;9.57;2.10;;;26.30;70.50;;;;;;5071835;28;20688;-79
2021/12/25 07:32:17;;;;;;;11.60;2.27;;;26.20;70.60;;;;;;5070430;28;20272;-79
2021/12/25 07:34:49;;;;;;;11.33;2.60;;;26.30;70.30;;;;;;5072146;28;20182;-77
2021/12/25 07:37:17;;;;;;;8.07;2.03;;;26.30;70.10;;;;;;5066819;28;20238;-77
2021/12/25 07:39:45;;;;;;;7.43;1.70;;;26.30;70.10;;;;;;5074333;28;20210;-74
2021/12/25 07:42:13;;;;;;;8.03;1.87;;;26.20;69.60;;;;;;5064441;28;20213;-79
2021/12/25 07:44:42;;;;;;;7.17;1.73;;;26.10;69.70;;;;;;5073245;28;20642;-79
2021/12/25 07:47:14;;;;;;;6.90;1.57;;;26.10;69.10;;;;;;5073688;28;20186;-75
2021/12/25 07:49:42;;;;;;;8.40;1.93;;;26.00;69.10;;;;;;5070463;28;20598;-77
2021/12/25 07:52:09;;;;;;;9.13;2.00;;;25.90;68.80;;;;;;5073850;28;20187;-78
2021/12/25 07:54:37;;;;;;;10.27;1.80;;;25.90;68.60;;;;;;5073994;28;20183;-77
2021/12/25 07:57:05;;;;;;;9.47;2.33;;;25.90;68.70;;;;;;5070742;28;20180;-75
2021/12/25 07:59:32;;;;;;;10.10;2.73;;;25.90;68.70;;;;;;5073007;28;20871;-79
2021/12/25 08:02:00;;;;;;;13.23;2.40;;;25.90;68.40;;;;;;5067614;28;20186;-76
2021/12/25 08:04:27;;;;;;;12.27;2.00;;;25.80;68.60;;;;;;5069926;28;20183;-75
2021/12/25 08:06:58;;;;;;;11.47;2.20;;;25.80;68.90;;;;;;5070644;28;20305;-77
2021/12/25 08:09:29;;;;;;;9.17;1.90;;;25.80;69.50;;;;;;5073168;28;20182;-77
2021/12/25 08:11:58;;;;;;;14.33;2.77;;;25.80;69.70;;;;;;5073165;28;20574;-77
2021/12/25 08:14:26;;;;;;;9.53;1.93;;;25.80;70.20;;;;;;5074281;28;20183;-77
2021/12/25 08:16:55;;;;;;;9.70;1.80;;;25.70;70.50;;;;;;5072421;28;20183;-80
2021/12/25 08:19:23;;;;;;;10.43;2.20;;;25.80;70.50;;;;;;5073024;28;20211;-79
2021/12/25 08:21:51;;;;;;;8.73;1.70;;;25.70;71.00;;;;;;5068589;28;20175;-76
2021/12/25 08:24:20;;;;;;;9.13;1.90;;;25.60;71.30;;;;;;5071791;28;20167;-77
2021/12/25 08:26:49;;;;;;;13.90;2.07;;;25.70;71.70;;;;;;5067138;28;20180;-76
2021/12/25 08:29:16;;;;;;;15.40;2.00;;;25.70;71.00;;;;;;5073060;28;20187;-77
2021/12/25 08:31:44;;;;;;;13.27;2.37;;;25.60;71.40;;;;;;5072725;28;20183;-77
2021/12/25 08:34:12;;;;;;;10.07;1.87;;;25.60;71.30;;;;;;5073586;28;20187;-76
2021/12/25 08:36:39;;;;;;;9.13;2.27;;;25.50;71.10;;;;;;5073541;28;20277;-76
2021/12/25 08:39:07;;;;;;;7.60;2.10;;;25.40;71.30;;;;;;5072407;28;20268;-75
2021/12/25 08:41:37;;;;;;;11.00;1.80;;;25.40;71.10;;;;;;5073486;28;20179;-76
2021/12/25 08:44:30;;;;;;;9.20;2.40;;;25.40;71.20;;;;;;5073637;28;20183;-79
2021/12/25 08:46:59;;;;;;;11.57;2.17;;;25.40;70.80;;;;;;5070347;28;20171;-80
2021/12/25 08:49:32;;;;;;;17.20;2.70;;;25.30;70.90;;;;;;5073735;28;20179;-77
2021/12/25 08:52:03;;;;;;;10.90;1.83;;;25.40;71.00;;;;;;5073317;28;20248;-78
2021/12/25 08:54:31;;;;;;;8.00;2.10;;;25.30;70.90;;;;;;5073135;28;20225;-76
2021/12/25 08:57:00;;;;;;;8.93;1.70;;;25.30;71.00;;;;;;5072668;28;20212;-76
2021/12/25 08:59:28;;;;;;;8.43;1.80;;;25.30;71.00;;;;;;5072550;28;20218;-77
2021/12/25 09:01:57;;;;;;;12.80;2.17;;;25.30;71.10;;;;;;5066716;28;20176;-75
2021/12/25 09:04:25;;;;;;;8.53;1.70;;;25.30;71.10;;;;;;5073106;28;20241;-75
2021/12/25 09:06:52;;;;;;;11.17;1.93;;;25.30;71.20;;;;;;5071707;28;20187;-76
2021/12/25 09:09:20;;;;;;;10.37;2.30;;;25.40;70.50;;;;;;5071818;28;20175;-73
2021/12/25 09:11:48;;;;;;;11.27;4.47;;;25.30;69.60;;;;;;5066670;28;20183;-75
2021/12/25 09:14:15;;;;;;;8.27;3.60;;;25.30;70.10;;;;;;5059404;28;20182;-76
2021/12/25 09:16:42;;;;;;;10.47;1.70;;;25.30;70.00;;;;;;5065282;28;20187;-75
2021/12/25 09:19:10;;;;;;;10.90;2.00;;;25.30;69.90;;;;;;5069800;28;20218;-75
2021/12/25 09:21:37;;;;;;;9.47;1.40;;;25.30;69.60;;;;;;5067230;28;20227;-74
2021/12/25 09:24:05;;;;;;;6.20;1.60;;;25.30;69.50;;;;;;5072238;28;20262;-75
2021/12/25 09:26:33;;;;;;;6.50;1.43;;;25.20;69.30;;;;;;5067083;28;20187;-79
2021/12/25 09:29:00;;;;;;;9.50;1.50;;;25.20;69.80;;;;;;5071313;28;20310;-75
2021/12/25 09:31:28;;;;;;;15.10;1.93;;;25.30;69.90;;;;;;5071006;28;20266;-74
2021/12/25 09:33:55;;;;;;;9.00;1.63;;;25.20;70.10;;;;;;5068235;28;20175;-75
2021/12/25 09:36:23;;;;;;;6.63;1.50;;;25.30;70.00;;;;;;5067279;28;20257;-75
2021/12/25 09:38:54;;;;;;;7.07;1.53;;;25.20;70.10;;;;;;5064006;28;20222;-75
2021/12/25 09:41:22;;;;;;;10.90;1.83;;;25.20;70.20;;;;;;5072273;28;20183;-76
2021/12/25 09:43:50;;;;;;;10.70;1.97;;;25.20;70.00;;;;;;5070511;28;20187;-76
2021/12/25 09:46:20;;;;;;;7.73;1.50;;;25.10;69.90;;;;;;5069529;28;20182;-81
2021/12/25 09:48:50;;;;;;;9.63;1.50;;;25.10;69.50;;;;;;5067385;28;20182;-75
2021/12/25 09:51:18;;;;;;;10.70;2.00;;;25.10;70.00;;;;;;5072005;28;20184;-77
2021/12/25 09:54:07;;;;;;;10.43;1.93;;;25.20;69.90;;;;;;5072170;28;20225;-75
2021/12/25 09:56:38;;;;;;;7.97;1.60;;;25.10;70.30;;;;;;5069595;28;20176;-75
2021/12/25 09:59:07;;;;;;;13.70;1.67;;;25.10;70.60;;;;;;5071548;28;20214;-75
2021/12/25 10:01:47;;;;;;;12.40;1.73;;;25.00;70.80;;;;;;5070865;28;20620;-78
2021/12/25 10:04:31;;;;;;;12.73;2.83;;;25.00;71.00;;;;;;5061396;28;20174;-75
2021/12/25 10:07:11;;;;;;;8.40;2.33;;;25.00;71.00;;;;;;5071104;28;20653;-76
2021/12/25 10:09:38;;;;;;;11.37;1.77;;;25.10;71.10;;;;;;5071550;28;20175;-76
2021/12/25 10:12:08;;;;;;;12.93;2.07;;;25.00;71.60;;;;;;5068169;28;20179;-74
2021/12/25 10:14:37;;;;;;;13.80;2.10;;;25.00;71.50;;;;;;5067019;28;20206;-76
2021/12/25 10:17:19;;;;;;;10.73;1.87;;;25.00;71.80;;;;;;5071407;28;20175;-83
2021/12/25 10:20:12;;;;;;;11.50;2.00;;;24.90;71.80;;;;;;5067814;28;20215;-77
2021/12/25 10:23:15;;;;;;;10.90;2.03;;;24.90;71.80;;;;;;5068567;28;20537;-75
2021/12/25 10:25:51;;;;;;;10.43;2.23;;;24.90;72.20;;;;;;5046311;28;20186;-77
2021/12/25 10:28:22;;;;;;;6.33;1.73;;;24.90;72.50;;;;;;5064480;28;20182;-76
2021/12/25 10:31:04;;;;;;;12.27;2.10;;;24.80;72.80;;;;;;5071738;28;20186;-74
2021/12/25 10:33:41;;;;;;;18.40;2.70;;;24.80;73.00;;;;;;5070476;28;20179;-75
2021/12/25 10:36:26;;;;;;;8.87;2.00;;;24.80;73.00;;;;;;5064881;28;20552;-75
2021/12/25 10:39:12;;;;;;;13.13;2.00;;;24.80;73.30;;;;;;5070507;28;20568;-74
2021/12/25 10:41:57;;;;;;;15.37;2.47;;;24.80;73.20;;;;;;5057894;28;20252;-75
2021/12/25 10:44:28;;;;;;;13.47;2.37;;;24.80;73.50;;;;;;5092369;28;20543;-75
2021/12/25 10:47:00;;;;;;;11.77;2.10;;;24.80;73.90;;;;;;5071221;28;20175;-75
2021/12/25 10:49:35;;;;;;;11.73;2.50;;;24.80;74.10;;;;;;5068635;28;20164;-77
2021/12/25 10:52:45;;;;;;;13.30;2.60;;;24.80;73.50;;;;;;5074695;28;20267;-75
2021/12/25 10:55:24;;;;;;;11.87;2.27;;;24.80;73.60;;;;;;5025389;28;20188;-75
2021/12/25 10:57:57;;;;;;;14.80;1.93;;;24.70;73.80;;;;;;5070879;28;20214;-76
2021/12/25 11:00:29;;;;;;;10.70;2.13;;;24.70;73.80;;;;;;5073819;28;20206;-79
2021/12/25 11:03:10;;;;;;;13.73;2.70;;;24.60;74.10;;;;;;5074962;28;20171;-76
2021/12/25 11:05:46;;;;;;;12.23;2.40;;;24.60;74.40;;;;;;5069736;28;20191;-76
2021/12/25 11:08:32;;;;;;;12.73;3.33;;;24.60;74.70;;;;;;5068351;28;20174;-77
2021/12/25 11:11:05;;;;;;;13.37;2.63;;;24.50;74.90;;;;;;5067723;28;20679;-75
2021/12/25 11:13:43;;;;;;;13.20;2.43;;;24.50;75.10;;;;;;5075637;28;20182;-77
2021/12/25 11:16:22;;;;;;;16.20;2.23;;;24.40;75.20;;;;;;5069855;28;20228;-75
2021/12/25 11:19:12;;;;;;;8.90;1.83;;;24.40;75.20;;;;;;5073543;28;20199;-75
2021/12/25 11:21:46;;;;;;;15.83;2.00;;;24.40;75.70;;;;;;5075090;28;20668;-75
2021/12/25 11:24:17;;;;;;;10.50;2.10;;;24.40;75.70;;;;;;5066314;28;20211;-74
2021/12/25 11:26:48;;;;;;;12.23;2.60;;;24.40;76.00;;;;;;5073540;28;20236;-76
2021/12/25 11:29:17;;;;;;;9.73;2.07;;;24.30;76.30;;;;;;5069530;28;20212;-75
2021/12/25 11:31:45;;;;;;;14.37;2.13;;;24.30;76.30;;;;;;5071701;28;20218;-74
2021/12/25 11:34:13;;;;;;;14.57;2.37;;;24.30;76.40;;;;;;5075158;28;20184;-75
2021/12/25 11:36:48;;;;;;;15.37;2.30;;;24.30;76.50;;;;;;5074535;28;20294;-73
2021/12/25 11:39:19;;;;;;;13.23;2.47;;;24.30;76.90;;;;;;5067729;28;20577;-74
2021/12/25 11:41:48;;;;;;;16.13;2.10;;;24.30;77.20;;;;;;5073752;28;20187;-75
2021/12/25 11:44:44;;;;;;;14.07;2.63;;;24.20;77.40;;;;;;5074925;28;20186;-74
2021/12/25 11:47:30;;;;;;;12.73;2.03;;;24.30;77.40;;;;;;5067329;28;20186;-74
2021/12/25 11:49:59;;;;;;;14.97;2.33;;;24.30;77.50;;;;;;5074604;28;20175;-74
2021/12/25 11:52:34;;;;;;;9.43;2.10;;;24.20;77.70;;;;;;5074612;28;20176;-74
2021/12/25 11:58:37;;;;;;;14.30;2.13;;;24.20;78.00;;;;;;5069761;28;20214;-76
2021/12/25 12:01:23;;;;;;;13.23;2.87;;;24.20;77.90;;;;;;5073628;28;20657;-75
2021/12/25 12:04:05;;;;;;;11.40;2.20;;;24.20;77.70;;;;;;5073116;28;20704;-75
2021/12/25 12:06:47;;;;;;;15.03;2.77;;;24.20;78.00;;;;;;5074884;28;20183;-74
2021/12/25 12:09:15;;;;;;;13.40;2.07;;;24.20;78.00;;;;;;5067133;28;20175;-77
2021/12/25 12:11:47;;;;;;;15.23;2.77;;;24.10;78.30;;;;;;5073555;28;20183;-73
2021/12/25 12:14:26;;;;;;;10.93;2.30;;;24.10;78.50;;;;;;5074179;28;20179;-74
2021/12/25 12:17:06;;;;;;;10.23;2.27;;;24.00;78.50;;;;;;5073792;28;20214;-74
2021/12/25 12:19:35;;;;;;;12.73;2.33;;;24.00;78.40;;;;;;5074300;28;20215;-76
2021/12/25 12:25:29;;;;;;;7.50;1.47;;;24.00;77.70;;;;;;5073535;28;20175;-74
2021/12/25 12:28:02;;;;;;;6.60;1.70;;;24.00;77.70;;;;;;5056952;28;20234;-77
2021/12/25 12:30:33;;;;;;;9.93;2.43;;;23.90;76.70;;;;;;5073137;28;20187;-75
2021/12/25 12:33:11;;;;;;;12.27;2.10;;;24.00;76.90;;;;;;5072891;28;20234;-75
2021/12/25 12:35:43;;;;;;;11.00;2.07;;;24.00;77.10;;;;;;5073584;28;20536;-74
2021/12/25 12:38:40;;;;;;;11.40;2.20;;;23.90;77.20;;;;;;5073187;28;20207;-79
2021/12/25 12:41:17;;;;;;;7.83;1.97;;;23.90;77.20;;;;;;5073062;28;20183;-77
2021/12/25 12:44:10;;;;;;;9.57;1.77;;;23.90;76.90;;;;;;5073647;28;20182;-74
2021/12/25 12:46:55;;;;;;;17.43;2.23;;;23.90;76.50;;;;;;5073283;28;20543;-75
2021/12/25 12:49:24;;;;;;;12.90;1.77;;;23.90;76.10;;;;;;5068188;28;20175;-74
2021/12/25 12:52:20;;;;;;;15.03;2.20;;;23.90;76.10;;;;;;5073049;28;20660;-73
2021/12/25 12:54:57;;;;;;;10.37;2.20;;;23.90;76.20;;;;;;5065134;28;20275;-74
2021/12/25 12:57:34;;;;;;;6.70;1.47;;;23.80;76.30;;;;;;5067259;28;20186;-76
2021/12/25 13:00:25;;;;;;;7.63;1.73;;;23.80;76.30;;;;;;5073059;28;20194;-74
2021/12/25 13:02:55;;;;;;;15.03;2.27;;;23.80;76.20;;;;;;5072948;28;20209;-75
2021/12/25 13:05:34;;;;;;;10.77;2.10;;;23.80;76.30;;;;;;5072969;28;20178;-75
2021/12/25 13:08:20;;;;;;;14.43;2.00;;;23.80;76.70;;;;;;5068278;28;20178;-74
2021/12/25 13:13:23;;;;;;;7.43;1.90;;;23.70;77.00;;;;;;5070398;28;20171;-74
2021/12/25 13:15:56;;;;;;;15.33;2.67;;;23.70;77.10;;;;;;5071357;28;20174;-74
2021/12/25 13:18:29;;;;;;;6.93;1.80;;;23.70;77.20;;;;;;5070485;28;20252;-75
2021/12/25 13:20:57;;;;;;;9.40;1.80;;;23.70;77.40;;;;;;5073720;28;20183;-73
2021/12/25 13:23:33;;;;;;;10.47;2.17;;;23.70;77.30;;;;;;5068299;28;20229;-73
2021/12/25 13:26:10;;;;;;;7.90;1.63;;;23.70;77.40;;;;;;5074763;28;20537;-74
2021/12/25 13:28:41;;;;;;;12.80;2.10;;;23.70;77.30;;;;;;5074167;28;20563;-73
2021/12/25 13:31:18;;;;;;;8.13;2.37;;;23.60;77.50;;;;;;5066336;28;20171;-73
2021/12/25 13:33:57;;;;;;;8.30;1.70;;;23.60;77.60;;;;;;5073813;28;20171;-77
2021/12/25 13:36:28;;;;;;;6.30;1.87;;;23.50;77.80;;;;;;5073974;28;20572;-73
2021/12/25 13:39:07;;;;;;;10.50;2.07;;;23.50;77.60;;;;;;5068859;28;20617;-73
2021/12/25 13:41:40;;;;;;;6.27;1.70;;;23.50;77.70;;;;;;5075225;28;20190;-75
2021/12/25 13:44:30;;;;;;;12.83;2.00;;;23.60;77.50;;;;;;5074466;28;20241;-76
2021/12/25 13:47:00;;;;;;;8.47;1.47;;;23.50;77.50;;;;;;5073058;28;20582;-73
2021/12/25 13:49:36;;;;;;;11.60;2.03;;;23.50;77.60;;;;;;5074760;28;20265;-73
2021/12/25 13:52:22;;;;;;;9.07;2.63;;;23.40;77.80;;;;;;5071096;28;20179;-73
2021/12/25 13:54:59;;;;;;;10.87;2.23;;;23.40;77.80;;;;;;5071593;28;20183;-73
2021/12/25 13:57:29;;;;;;;12.30;1.90;;;23.30;77.80;;;;;;5074824;28;20213;-74
2021/12/25 14:00:01;;;;;;;11.10;2.13;;;23.30;78.20;;;;;;5068799;28;20560;-77
2021/12/25 14:02:29;;;;;;;13.00;2.10;;;23.30;78.30;;;;;;5073985;28;20541;-73
2021/12/25 14:04:57;;;;;;;12.27;1.80;;;23.30;78.40;;;;;;5072862;28;20529;-74
2021/12/25 14:07:27;;;;;;;9.47;1.80;;;23.20;78.80;;;;;;5062706;28;20176;-74
2021/12/25 14:10:07;;;;;;;9.33;1.77;;;23.20;78.90;;;;;;5072179;28;20544;-74
2021/12/25 14:12:36;;;;;;;10.53;1.90;;;23.20;79.10;;;;;;5071508;28;20553;-73
2021/12/25 14:15:05;;;;;;;14.03;2.33;;;23.30;78.60;;;;;;5070401;28;20187;-78
2021/12/25 14:17:32;;;;;;;14.00;2.40;;;23.40;78.30;;;;;;5073315;28;20190;-74
2021/12/25 14:20:10;;;;;;;11.80;2.27;;;23.50;78.00;;;;;;5076509;28;20581;-74
2021/12/25 14:22:39;;;;;;;12.30;2.10;;;23.40;78.20;;;;;;5073773;28;20179;-72
2021/12/25 14:25:08;;;;;;;9.70;2.10;;;23.30;78.80;;;;;;5075760;28;20244;-74
2021/12/25 14:27:36;;;;;;;6.57;1.57;;;23.30;79.00;;;;;;5065660;28;20262;-74
2021/12/25 14:30:10;;;;;;;13.07;2.93;;;23.20;79.30;;;;;;5071168;28;20194;-74
2021/12/25 14:32:38;;;;;;;10.27;1.97;;;23.30;79.40;;;;;;5072039;28;20183;-73
2021/12/25 14:35:22;;;;;;;14.03;1.80;;;23.30;79.10;;;;;;5075960;28;20701;-73
2021/12/25 14:37:59;;;;;;;8.83;1.60;;;23.10;79.60;;;;;;5074803;28;20530;-74